Vaaraa aiheuttavia sääilmiöitä ei ole odotettavissa.    Ei varoituksia

Webkamera Lisätietoa Webcam


Yksityisiä sääasemia lähellä:

Sääasema Juupajoki

Sääasema Orivesi

Sääasema Muurame

Sääasema Jyväskylä

Sääasema Vihtavuori


Löydät sääaseman tiedot myös:

Finland Weather Exchange

European Weather Network

Weather Underground

AWEKAS

Windy.com



Säätiedot lähimmiltä METAR asemilta

   
EFHA - Halli (Fin-Afb), Finland
Etäisyys asemalta: Kaakko 25 km
Päivitetty: 18.07.2019 07:50
Selkeää  
Selkeää  
   Tuuli: Pohjoisluode 2.1 m/s
Tuuli: Pohjoisluode 2.1 m/s
Lämpötila: 14°C
Kastepiste: 12°C
Kosteus: 88%
Ilmanpaine: 1011 hPa
Näkyvyys: Enemmän kuin 10 km
Pilvitiedot: Selkeää
EFHA 180450Z AUTO 33004KT 300V360 CAVOK 14/12 Q1011
EFJY - Jyvaskyla (Mil/Civ), Finland
Etäisyys asemalta: Koillinen 75 km
Päivitetty: 18.07.2019 07:50
Melkein pilvistä  
Melkein pilvistä  
   Tuuli: Pohjoinen 3.6 m/s
Tuuli: Pohjoinen 3.6 m/s
Lämpötila: 13°C
Kastepiste: 12°C
Kosteus: 94%
Ilmanpaine: 1012 hPa
Pilvisyys: Melkein pilvistä
Näkyvyys: Enemmän kuin 10 km
Pilvitiedot: Melkein pilvistä 122 m
EFJY 180450Z AUTO 35007KT 320V020 9999 BKN004 13/12 Q1012
EFTP - Tampere/Pirkkala, Finland
Etäisyys asemalta: Lounas 81 km
Päivitetty: 18.07.2019 07:50
Selkeää  
Selkeää  
   Tuuli: Pohjoiskoillinen 1.5 m/s
Tuuli: Pohjoiskoillinen 1.5 m/s
Lämpötila: 15°C
Kastepiste: 13°C
Kosteus: 88%
Ilmanpaine: 1012 hPa
Näkyvyys: Enemmän kuin 10 km
Pilvitiedot: Selkeää
EFTP 180450Z AUTO 02003KT CAVOK 15/13 Q1012
EFSI - Seinajoki-Ilmajoki, Finland
Etäisyys asemalta: Luode 114 km
Päivitetty: 18.07.2019 07:50
Selkeää  
Selkeää  
   Tuuli: Pohjoiskoillinen 1 m/s
Tuuli: Pohjoiskoillinen 1 m/s
Lämpötila: 14°C
Kastepiste: 12°C
Kosteus: 88%
Ilmanpaine: 1012 hPa
Näkyvyys: Enemmän kuin 10 km
Pilvitiedot: Selkeää
EFSI 180450Z AUTO 03002KT CAVOK 14/12 Q1012
EFMI - Mikkeli, Finland
Etäisyys asemalta: Itäkaakko 147 km
Päivitetty: 18.07.2019 07:50
Selkeää  
Selkeää  
   Tuuli: Vaihtelee 0.5 m/s
Tuuli: Vaihtelee 0.5 m/s
Lämpötila: 16°C
Kastepiste: 14°C
Kosteus: 88%
Ilmanpaine: 1010 hPa
Näkyvyys: Enemmän kuin 10 km
Pilvitiedot: Selkeää
EFMI 180450Z AUTO VRB01KT CAVOK 16/14 Q1010
EFPO - Pori (Mil/Civ), Finland
Etäisyys asemalta: Länsilounas 154 km
Päivitetty: 18.07.2019 07:50
Selkeää  
Selkeää  
   Tuuli: Länsiluode 1.5 m/s
Tuuli: Länsiluode 1.5 m/s
Lämpötila: 14°C
Kastepiste: 12°C
Kosteus: 88%
Ilmanpaine: 1012 hPa
Näkyvyys: Enemmän kuin 10 km
Pilvitiedot: Selkeää
EFPO 180450Z AUTO 29003KT 250V320 CAVOK 14/12 Q1012
EFUT - Utti (Fin-Afb), Finland
Etäisyys asemalta: Kaakko 180 km
Päivitetty: 18.07.2019 07:50
Selkeää  
Selkeää  
   Tuuli: Pohjoinen 3.6 m/s
Tuuli: Pohjoinen 3.6 m/s
Lämpötila: 15°C
Kastepiste: 11°C
Kosteus: 77%
Ilmanpaine: 1010 hPa
Näkyvyys: Enemmän kuin 10 km
Pilvitiedot: Selkeää
EFUT 180450Z 35007KT CAVOK 15/11 Q1010
EFVA - Vaasa, Finland
Etäisyys asemalta: Luode 180 km
Päivitetty: 18.07.2019 07:50
Selkeää  
Selkeää  
   Tuuli: Itäkoillinen 2.1 m/s
Tuuli: Itäkoillinen 2.1 m/s
Lämpötila: 14°C
Kastepiste: 11°C
Kosteus: 82%
Ilmanpaine: 1013 hPa
Näkyvyys: Enemmän kuin 10 km
Pilvitiedot: Selkeää
EFVA 180450Z AUTO 06004KT CAVOK 14/11 Q1013
EFHK - Helsinki/Vantaa, Finland
Etäisyys asemalta: Etelä 191 km
Päivitetty: 18.07.2019 07:50
Selkeää  
Selkeää  
   Tuuli: Pohjoisluode 4.1 m/s
Tuuli: Pohjoisluode 4.1 m/s
Lämpötila: 14°C
Kastepiste: 12°C
Kosteus: 88%
Ilmanpaine: 1010 hPa
Näkyvyys: Enemmän kuin 10 km
Pilvitiedot: Selkeää
EFHK 180450Z 34008KT CAVOK 14/12 Q1010 NOSIG

Alkuperäinen skripti  Saratoga-weather.org Sovitettu myös templatelle  Weerstation Leuven

Laitteet joita käytämme:

Sääasema
Davis VP2

Sääasemaohjelma
Cumulus

Sääaseman palvelin
HP ProBook 6460b

Palveluntarjoaja
Radicenter

Davis VP2

Cumulus

HP ProBook 6460b

Radicenter




Flag Counter Cumulus Top Weather Sites